Time;durP1;ratioP1;P1;durP2;ratioP2;P2;SDS_P1;SDS_P2;PMS_P1;PMS_P2;Temp;Humidity;BMP_temperature;BMP_pressure;BME280_temperature;BME280_humidity;BME280_pressure;Samples;Min_cycle;Max_cycle;Signal;HPM_P1;HPM_P2
2021/05/21 00:02:45;;;;;;;5.10;1.77;;;14.30;68.10;;;;;;5130859;27;27395;-52
2021/05/21 00:05:36;;;;;;;3.15;1.33;;;14.20;68.10;;;;;;5130277;27;27383;-53
2021/05/21 00:08:27;;;;;;;1.98;1.40;;;14.20;68.30;;;;;;5130614;27;27630;-53
2021/05/21 00:11:17;;;;;;;5.80;1.30;;;14.20;68.50;;;;;;5130460;27;27390;-51
2021/05/21 00:14:25;;;;;;;2.40;1.48;;;14.20;68.30;;;;;;5130785;27;27457;-46
2021/05/21 00:17:10;;;;;;;1.75;1.50;;;14.10;69.00;;;;;;5112859;27;27451;-46
2021/05/21 00:20:00;;;;;;;4.57;1.75;;;14.10;68.50;;;;;;5130666;27;27393;-48
2021/05/21 00:22:51;;;;;;;1.63;1.52;;;14.10;68.40;;;;;;5130287;27;27565;-51
2021/05/21 00:25:42;;;;;;;2.85;1.75;;;14.10;68.50;;;;;;5130546;27;27378;-49
2021/05/21 00:28:32;;;;;;;1.90;1.70;;;14.10;68.50;;;;;;5130573;27;27456;-48
2021/05/21 00:31:22;;;;;;;1.55;1.40;;;14.10;68.50;;;;;;5114743;27;27356;-49
2021/05/21 00:34:12;;;;;;;4.43;1.50;;;14.10;68.60;;;;;;5130469;27;27430;-49
2021/05/21 00:37:08;;;;;;;1.83;1.38;;;14.00;68.70;;;;;;5130299;27;27387;-48
2021/05/21 00:39:58;;;;;;;2.00;1.52;;;14.00;68.70;;;;;;5130254;27;27387;-48
2021/05/21 00:42:49;;;;;;;1.80;1.55;;;14.00;68.70;;;;;;5130294;27;27844;-49
2021/05/21 00:45:39;;;;;;;2.40;1.17;;;14.00;68.70;;;;;;5122942;27;27391;-48
2021/05/21 00:48:30;;;;;;;2.72;1.45;;;14.00;68.80;;;;;;5123670;27;27337;-49
2021/05/21 00:51:21;;;;;;;1.40;1.23;;;13.90;68.80;;;;;;5123509;27;27393;-49
2021/05/21 00:54:13;;;;;;;2.08;1.52;;;14.00;68.70;;;;;;5126477;27;27869;-46
2021/05/21 00:56:58;;;;;;;1.40;1.30;;;14.00;68.70;;;;;;5111217;27;27588;-48
2021/05/21 00:59:49;;;;;;;1.60;1.30;;;13.90;68.80;;;;;;5111214;27;27493;-47
2021/05/21 01:02:39;;;;;;;6.65;1.95;;;13.90;68.80;;;;;;5126231;27;27474;-48
2021/05/21 01:05:30;;;;;;;2.97;1.30;;;13.90;68.80;;;;;;5126191;27;27315;-50
2021/05/21 01:08:27;;;;;;;3.22;1.30;;;13.90;69.10;;;;;;5126399;27;27513;-50
2021/05/21 01:11:17;;;;;;;1.67;1.30;;;13.90;68.80;;;;;;5125795;27;27424;-49
2021/05/21 01:14:14;;;;;;;1.40;1.30;;;13.80;69.00;;;;;;5126319;27;27360;-49
2021/05/21 01:17:05;;;;;;;2.00;1.55;;;13.80;68.90;;;;;;5126205;27;27548;-52
2021/05/21 01:19:55;;;;;;;3.63;1.35;;;13.80;69.00;;;;;;5126298;27;27371;-49
2021/05/21 01:22:46;;;;;;;1.65;1.48;;;13.80;69.20;;;;;;5126292;27;27469;-49
2021/05/21 01:25:36;;;;;;;1.77;1.65;;;13.80;69.30;;;;;;5126097;27;27385;-48
2021/05/21 01:28:27;;;;;;;2.67;1.40;;;13.70;68.90;;;;;;5122765;27;28033;-48
2021/05/21 01:31:17;;;;;;;2.97;1.40;;;13.70;69.10;;;;;;5126181;27;27356;-49
2021/05/21 01:34:09;;;;;;;2.60;1.70;;;13.70;69.20;;;;;;5107558;27;27412;-51
2021/05/21 01:37:00;;;;;;;1.50;1.40;;;13.70;69.20;;;;;;5125521;27;27477;-51
2021/05/21 01:39:51;;;;;;;1.92;1.70;;;13.70;69.30;;;;;;5125982;27;27973;-51
2021/05/21 01:42:45;;;;;;;1.85;1.20;;;13.70;69.30;;;;;;5125848;27;27436;-50
2021/05/21 01:45:43;;;;;;;1.55;1.30;;;13.70;69.30;;;;;;5096050;27;27637;-50
2021/05/21 01:48:36;;;;;;;4.13;1.45;;;13.60;69.30;;;;;;5125669;27;27398;-49
2021/05/21 01:51:31;;;;;;;1.30;1.20;;;13.60;69.60;;;;;;5096708;27;27874;-54
2021/05/21 01:54:49;;;;;;;1.20;1.10;;;13.60;69.50;;;;;;5069164;27;27348;-51
2021/05/21 01:57:42;;;;;;;1.50;1.40;;;13.60;69.60;;;;;;5124221;27;26982;-48
2021/05/21 02:00:33;;;;;;;2.67;1.35;;;13.60;69.50;;;;;;5125734;27;27461;-47
2021/05/21 02:03:26;;;;;;;1.10;1.00;;;13.60;69.70;;;;;;5125299;27;28039;-52
2021/05/21 02:06:35;;;;;;;1.80;1.25;;;13.50;69.70;;;;;;5124803;27;27374;-46
2021/05/21 02:09:25;;;;;;;1.83;1.40;;;13.50;69.50;;;;;;5125238;27;27423;-51
2021/05/21 02:12:24;;;;;;;1.50;1.27;;;13.50;69.50;;;;;;5125276;27;27351;-47
2021/05/21 02:15:21;;;;;;;3.63;1.45;;;13.40;69.50;;;;;;5125577;27;27460;-48
2021/05/21 02:18:14;;;;;;;3.00;1.17;;;13.40;69.50;;;;;;5106530;27;27441;-48
2021/05/21 02:21:08;;;;;;;1.45;1.30;;;13.40;69.60;;;;;;5095725;27;27471;-48
2021/05/21 02:24:00;;;;;;;3.85;1.58;;;13.40;69.60;;;;;;5125321;27;27343;-48
2021/05/21 02:26:50;;;;;;;2.60;1.42;;;13.30;69.60;;;;;;5125107;27;27398;-46
2021/05/21 02:29:40;;;;;;;3.08;1.35;;;13.30;69.40;;;;;;5121967;27;27538;-47
2021/05/21 02:32:31;;;;;;;3.95;1.30;;;13.30;69.60;;;;;;5108943;27;27589;-47
2021/05/21 02:35:24;;;;;;;1.65;1.00;;;13.30;69.80;;;;;;5124950;27;27484;-50
2021/05/21 02:38:21;;;;;;;3.08;1.20;;;13.20;69.70;;;;;;5080510;27;27673;-50
2021/05/21 02:41:12;;;;;;;1.30;1.20;;;13.20;69.70;;;;;;5125150;27;27438;-47
2021/05/21 02:44:04;;;;;;;2.10;1.55;;;13.20;69.90;;;;;;5125113;27;27378;-49
2021/05/21 02:46:55;;;;;;;2.75;1.05;;;13.20;69.80;;;;;;5124854;27;27347;-46
2021/05/21 02:49:46;;;;;;;1.45;1.10;;;13.20;69.80;;;;;;5106333;27;27482;-47
2021/05/21 02:52:36;;;;;;;1.60;1.30;;;13.10;69.80;;;;;;5124800;27;27398;-49
2021/05/21 02:55:28;;;;;;;2.22;1.33;;;13.10;69.70;;;;;;5124958;27;27414;-48
2021/05/21 02:58:20;;;;;;;1.20;1.10;;;13.10;69.90;;;;;;5124424;27;27428;-51
2021/05/21 03:01:11;;;;;;;1.60;1.40;;;13.10;69.70;;;;;;5124470;27;27335;-48
2021/05/21 03:04:02;;;;;;;1.33;1.02;;;13.10;69.80;;;;;;5109420;27;27503;-51
2021/05/21 03:06:53;;;;;;;3.90;1.45;;;13.00;69.70;;;;;;5123593;27;27486;-49
2021/05/21 03:09:44;;;;;;;3.22;1.23;;;13.00;69.70;;;;;;5124455;27;27442;-47
2021/05/21 03:12:40;;;;;;;2.17;1.15;;;13.00;69.70;;;;;;5121119;27;27304;-51
2021/05/21 03:15:31;;;;;;;3.92;1.00;;;13.00;69.60;;;;;;5124549;27;27465;-50
2021/05/21 03:18:22;;;;;;;1.52;1.30;;;13.00;69.70;;;;;;5124691;27;27441;-48
2021/05/21 03:21:13;;;;;;;2.10;1.40;;;12.90;69.70;;;;;;5124304;27;27419;-52
2021/05/21 03:24:25;;;;;;;1.95;1.48;;;12.90;69.60;;;;;;5106606;27;27328;-52
2021/05/21 03:27:16;;;;;;;2.45;1.23;;;12.90;69.70;;;;;;5123884;27;27348;-50
2021/05/21 03:30:33;;;;;;;3.17;1.48;;;12.90;69.70;;;;;;5120887;27;27416;-49
2021/05/21 03:33:24;;;;;;;3.05;1.40;;;12.80;69.50;;;;;;5108595;27;27485;-51
2021/05/21 03:36:16;;;;;;;1.20;1.10;;;12.80;69.70;;;;;;5124014;27;27443;-52
2021/05/21 03:39:08;;;;;;;1.10;1.00;;;12.80;69.30;;;;;;5094153;27;27461;-53
2021/05/21 03:41:58;;;;;;;0.85;0.85;;;12.80;69.60;;;;;;5124075;27;27469;-51
2021/05/21 03:44:50;;;;;;;1.90;0.95;;;12.80;69.50;;;;;;5079449;27;27739;-48
2021/05/21 03:47:41;;;;;;;1.35;1.20;;;12.70;69.30;;;;;;5123899;27;27382;-53
2021/05/21 03:50:32;;;;;;;2.22;1.08;;;12.70;69.50;;;;;;5123862;27;27438;-48
2021/05/21 03:53:22;;;;;;;1.58;1.15;;;12.60;69.40;;;;;;5107771;27;27420;-52
2021/05/21 03:56:14;;;;;;;2.42;1.10;;;12.60;69.60;;;;;;5123802;27;27465;-48
2021/05/21 03:59:04;;;;;;;1.67;1.17;;;12.60;69.90;;;;;;5124092;27;27903;-50
2021/05/21 04:01:55;;;;;;;2.67;1.52;;;12.60;70.00;;;;;;5124000;27;27405;-52
2021/05/21 04:04:46;;;;;;;1.05;0.95;;;12.60;70.20;;;;;;5124060;27;27462;-49
2021/05/21 04:07:42;;;;;;;1.50;0.98;;;12.50;70.40;;;;;;5122781;27;27426;-53
2021/05/21 04:10:32;;;;;;;3.88;0.90;;;12.50;70.20;;;;;;5123733;27;27338;-47
2021/05/21 04:13:24;;;;;;;2.67;1.33;;;12.50;70.70;;;;;;5120278;27;27611;-49
2021/05/21 04:16:15;;;;;;;3.17;1.15;;;12.50;70.70;;;;;;5123939;27;27439;-48
2021/05/21 04:19:10;;;;;;;1.45;1.00;;;12.50;70.70;;;;;;5120565;27;27325;-53
2021/05/21 04:22:26;;;;;;;1.52;1.13;;;12.50;70.60;;;;;;5127117;27;28022;-48
2021/05/21 04:25:39;;;;;;;1.50;1.10;;;12.50;70.60;;;;;;5127320;27;27570;-47
2021/05/21 04:29:14;;;;;;;1.90;1.20;;;12.50;70.70;;;;;;5123705;27;27395;-53
2021/05/21 04:32:06;;;;;;;1.05;0.82;;;12.50;70.70;;;;;;5126540;27;27352;-46
2021/05/21 04:34:57;;;;;;;7.88;1.65;;;12.50;70.80;;;;;;5108171;27;27428;-47
2021/05/21 04:37:47;;;;;;;1.27;1.05;;;12.50;70.80;;;;;;5126839;27;27336;-47
2021/05/21 04:40:38;;;;;;;2.85;1.38;;;12.50;70.80;;;;;;5126851;27;27427;-47
2021/05/21 04:43:50;;;;;;;2.45;1.00;;;12.40;70.70;;;;;;5126828;27;27387;-47
2021/05/21 04:46:47;;;;;;;1.55;1.10;;;12.50;71.00;;;;;;5126635;27;27420;-47
2021/05/21 04:49:39;;;;;;;0.98;0.88;;;12.50;71.10;;;;;;5126598;27;27339;-48
2021/05/21 04:52:30;;;;;;;1.02;0.90;;;12.50;71.40;;;;;;5126556;27;27375;-48
2021/05/21 04:55:25;;;;;;;2.60;1.02;;;12.50;71.40;;;;;;5126514;27;27485;-45
2021/05/21 04:58:17;;;;;;;1.65;0.90;;;12.50;71.60;;;;;;5108961;27;27493;-49
2021/05/21 05:01:15;;;;;;;2.50;1.10;;;12.50;71.70;;;;;;5126444;27;27443;-47
2021/05/21 05:04:21;;;;;;;3.03;1.60;;;12.60;71.80;;;;;;5123218;27;27478;-49
2021/05/21 05:07:29;;;;;;;1.40;1.15;;;12.50;71.80;;;;;;5125788;27;27585;-49
2021/05/21 05:10:23;;;;;;;3.20;1.45;;;12.60;72.30;;;;;;5123030;27;27419;-48
2021/05/21 05:13:17;;;;;;;1.90;1.52;;;12.60;72.60;;;;;;5126030;27;27353;-52
2021/05/21 05:16:23;;;;;;;5.85;1.50;;;12.70;72.90;;;;;;5107853;27;27416;-54
2021/05/21 05:19:14;;;;;;;1.85;1.45;;;12.70;73.00;;;;;;5109699;27;27488;-53
2021/05/21 05:22:11;;;;;;;2.10;1.88;;;12.70;72.90;;;;;;5126111;27;28036;-53
2021/05/21 05:25:24;;;;;;;4.65;1.10;;;12.80;73.30;;;;;;5126160;27;27478;-51
2021/05/21 05:28:29;;;;;;;1.58;1.30;;;12.90;73.20;;;;;;5126392;27;27525;-51
2021/05/21 05:31:26;;;;;;;2.00;1.45;;;12.90;72.70;;;;;;5125039;27;27490;-53
2021/05/21 05:34:12;;;;;;;2.15;1.05;;;13.00;73.40;;;;;;5122633;27;27470;-49
2021/05/21 05:36:57;;;;;;;3.40;1.33;;;13.00;71.90;;;;;;5126417;27;27462;-47
2021/05/21 05:39:48;;;;;;;1.73;1.40;;;13.10;71.70;;;;;;5110565;27;27514;-53
2021/05/21 05:42:45;;;;;;;0.98;0.88;;;13.10;72.30;;;;;;5125840;27;27398;-52
2021/05/21 05:45:36;;;;;;;1.88;1.20;;;13.20;72.10;;;;;;5083923;27;27523;-48
2021/05/21 05:48:35;;;;;;;1.83;1.30;;;13.20;72.10;;;;;;5125696;27;27321;-49
2021/05/21 05:51:31;;;;;;;3.05;1.20;;;13.30;72.40;;;;;;5107976;27;27376;-49
2021/05/21 05:54:50;;;;;;;1.60;0.80;;;13.40;72.70;;;;;;5122022;27;27450;-49
2021/05/21 05:57:46;;;;;;;2.35;1.42;;;13.40;72.50;;;;;;5125505;27;27410;-53
2021/05/21 06:00:52;;;;;;;2.25;1.60;;;13.50;72.90;;;;;;5106900;27;27399;-48
2021/05/21 06:03:43;;;;;;;1.90;1.60;;;13.60;73.00;;;;;;5124309;27;27390;-50
2021/05/21 06:06:41;;;;;;;3.83;1.48;;;13.70;73.50;;;;;;5103814;28;27451;-49
2021/05/21 06:09:32;;;;;;;4.22;1.38;;;13.70;73.90;;;;;;5104874;28;27398;-50
2021/05/21 06:12:19;;;;;;;5.15;1.63;;;13.80;74.20;;;;;;5104880;28;27543;-53
2021/05/21 06:15:30;;;;;;;2.47;1.73;;;13.90;74.20;;;;;;5104988;28;27463;-47
2021/05/21 06:18:27;;;;;;;4.35;3.35;;;14.00;74.00;;;;;;5104251;28;27419;-46
2021/05/21 06:21:34;;;;;;;2.65;2.03;;;14.00;74.80;;;;;;5105317;28;27411;-52
2021/05/21 06:24:45;;;;;;;2.63;1.83;;;14.10;73.40;;;;;;5105036;28;27423;-51
2021/05/21 06:27:51;;;;;;;5.35;1.80;;;14.10;73.90;;;;;;5105802;28;27524;-50
2021/05/21 06:30:56;;;;;;;3.60;1.40;;;14.20;73.80;;;;;;5105194;28;27407;-48
2021/05/21 06:33:54;;;;;;;3.53;1.95;;;14.10;73.60;;;;;;5104942;28;27869;-50
2021/05/21 06:36:52;;;;;;;2.35;1.55;;;14.20;73.80;;;;;;5105687;28;27383;-52
2021/05/21 06:40:04;;;;;;;3.55;1.98;;;14.20;73.60;;;;;;5101587;28;27386;-50
2021/05/21 06:43:08;;;;;;;4.28;1.83;;;14.20;73.30;;;;;;5104445;28;27351;-53
2021/05/21 06:46:14;;;;;;;5.85;2.20;;;14.20;73.50;;;;;;5105377;28;27408;-54
2021/05/21 06:49:19;;;;;;;2.20;1.85;;;14.30;73.60;;;;;;5105265;28;27458;-49
2021/05/21 06:52:31;;;;;;;4.43;2.45;;;14.30;73.20;;;;;;5104652;28;27356;-52
2021/05/21 06:55:39;;;;;;;5.50;2.58;;;14.40;73.00;;;;;;5104994;28;27423;-52
2021/05/21 06:58:30;;;;;;;2.97;1.98;;;14.40;73.20;;;;;;5101968;28;27451;-48
2021/05/21 07:01:57;;;;;;;2.63;1.70;;;14.40;73.00;;;;;;5101127;28;27524;-52
2021/05/21 07:04:49;;;;;;;3.25;1.63;;;14.50;72.90;;;;;;5104229;28;27592;-48
2021/05/21 07:07:55;;;;;;;2.05;1.48;;;14.50;72.80;;;;;;5124202;27;27616;-53
2021/05/21 07:11:00;;;;;;;3.70;1.52;;;14.60;72.80;;;;;;5125619;27;27439;-51
2021/05/21 07:14:08;;;;;;;2.38;1.70;;;14.60;72.10;;;;;;5124530;27;27474;-49
2021/05/21 07:17:08;;;;;;;3.25;1.50;;;14.70;73.80;;;;;;5125096;27;27411;-50
2021/05/21 07:20:49;;;;;;;2.22;1.05;;;14.80;72.80;;;;;;5122219;27;27386;-50
2021/05/21 07:23:43;;;;;;;6.53;1.23;;;14.90;71.90;;;;;;5123979;27;27476;-52
2021/05/21 07:26:43;;;;;;;2.28;1.10;;;15.00;72.30;;;;;;5096652;27;27505;-52
2021/05/21 07:29:48;;;;;;;3.35;1.20;;;15.00;71.90;;;;;;5125366;27;27344;-53
2021/05/21 07:32:59;;;;;;;6.35;1.45;;;15.10;73.10;;;;;;5124756;27;27387;-52
2021/05/21 07:36:01;;;;;;;4.43;1.50;;;15.20;72.30;;;;;;5121733;27;27374;-53
2021/05/21 07:39:16;;;;;;;2.85;1.38;;;15.30;72.10;;;;;;5124909;27;27415;-51
2021/05/21 07:42:21;;;;;;;4.45;1.15;;;15.30;72.10;;;;;;5124860;27;27466;-48
2021/05/21 07:45:48;;;;;;;1.45;1.20;;;15.40;71.60;;;;;;5125146;27;27620;-52
2021/05/21 07:48:45;;;;;;;1.42;1.08;;;15.50;72.40;;;;;;5124794;27;27505;-51
2021/05/21 07:51:37;;;;;;;1.52;1.00;;;15.60;72.80;;;;;;5125115;27;27387;-51
2021/05/21 07:54:28;;;;;;;5.97;1.27;;;15.60;72.00;;;;;;5126753;27;27440;-48
2021/05/21 07:57:21;;;;;;;1.70;1.15;;;15.70;72.20;;;;;;5128775;27;27366;-51
2021/05/21 08:00:33;;;;;;;2.05;1.00;;;15.80;72.40;;;;;;5125044;27;27915;-49
2021/05/21 08:04:00;;;;;;;3.38;1.23;;;15.90;72.30;;;;;;5128156;27;27423;-52
2021/05/21 08:07:06;;;;;;;2.10;1.13;;;15.90;71.50;;;;;;5105149;28;27378;-49
2021/05/21 08:10:18;;;;;;;2.63;0.85;;;16.00;71.30;;;;;;5107432;28;27561;-52
2021/05/21 08:13:09;;;;;;;1.55;0.90;;;16.00;71.60;;;;;;5106412;28;27395;-51
2021/05/21 08:16:02;;;;;;;1.10;0.85;;;16.00;72.00;;;;;;5107533;28;27430;-52
2021/05/21 08:19:26;;;;;;;1.83;0.82;;;16.10;70.50;;;;;;5107481;28;27614;-49
2021/05/21 08:22:32;;;;;;;1.38;1.17;;;16.10;70.50;;;;;;5106680;28;27406;-48
2021/05/21 08:25:24;;;;;;;2.78;0.98;;;16.10;71.80;;;;;;5106764;28;27346;-50
2021/05/21 08:28:30;;;;;;;2.60;0.70;;;16.10;72.20;;;;;;5107228;28;27400;-49
2021/05/21 08:31:14;;;;;;;0.63;0.63;;;16.20;72.50;;;;;;5107150;28;27323;-48
2021/05/21 08:34:12;;;;;;;0.80;0.73;;;16.20;72.50;;;;;;5105911;28;27379;-50
2021/05/21 08:37:18;;;;;;;4.53;2.10;;;16.20;71.20;;;;;;5107413;28;27332;-51
2021/05/21 08:40:36;;;;;;;2.50;0.80;;;16.20;71.00;;;;;;5107038;28;27332;-50
2021/05/21 08:43:45;;;;;;;2.47;0.70;;;16.20;71.50;;;;;;5107486;28;27432;-49
2021/05/21 08:46:51;;;;;;;4.25;0.68;;;16.20;71.10;;;;;;5106251;28;27330;-49
2021/05/21 08:50:03;;;;;;;4.10;0.88;;;16.20;71.00;;;;;;5106890;28;27346;-48
2021/05/21 08:53:16;;;;;;;1.55;0.75;;;16.20;70.50;;;;;;5105219;28;27537;-48
2021/05/21 08:56:21;;;;;;;1.90;0.90;;;16.10;69.60;;;;;;5103793;28;27387;-47
2021/05/21 08:59:48;;;;;;;2.28;1.00;;;16.20;69.20;;;;;;5092087;28;27434;-52
2021/05/21 09:03:15;;;;;;;1.55;0.60;;;16.20;69.10;;;;;;5106362;28;27482;-50
2021/05/21 09:06:21;;;;;;;1.27;0.90;;;16.30;68.70;;;;;;5111417;27;27406;-52
2021/05/21 09:09:29;;;;;;;8.70;2.13;;;16.30;68.10;;;;;;5124011;27;27355;-47
2021/05/21 09:12:42;;;;;;;2.05;0.80;;;16.30;67.10;;;;;;5112153;27;27379;-50
2021/05/21 09:16:08;;;;;;;1.80;1.00;;;16.30;67.00;;;;;;5126797;27;27366;-53
2021/05/21 09:19:07;;;;;;;2.08;1.00;;;16.40;67.40;;;;;;5127236;27;27348;-52
2021/05/21 09:22:05;;;;;;;2.47;1.05;;;16.40;66.70;;;;;;5112101;27;26873;-52
2021/05/21 09:25:14;;;;;;;2.22;1.27;;;16.50;66.60;;;;;;5127367;27;27390;-51
2021/05/21 09:28:34;;;;;;;2.47;0.70;;;16.50;66.60;;;;;;5110959;27;27352;-51
2021/05/21 09:31:31;;;;;;;2.97;0.90;;;16.60;66.40;;;;;;5126823;27;27423;-51
2021/05/21 09:34:59;;;;;;;1.30;0.63;;;16.60;66.30;;;;;;5126958;27;27388;-51
2021/05/21 09:38:04;;;;;;;3.78;0.70;;;16.70;66.30;;;;;;5127179;27;27332;-53
2021/05/21 09:41:30;;;;;;;4.57;0.60;;;16.70;66.20;;;;;;5111779;27;27394;-50
2021/05/21 09:44:27;;;;;;;2.08;0.85;;;16.80;65.90;;;;;;5125570;27;27419;-53
2021/05/21 09:47:18;;;;;;;0.68;0.52;;;16.80;65.40;;;;;;5126784;27;27420;-49
2021/05/21 09:50:29;;;;;;;10.80;1.50;;;16.80;65.20;;;;;;5126959;27;27390;-50
2021/05/21 09:53:21;;;;;;;3.97;1.30;;;16.80;65.20;;;;;;5126520;27;27862;-48
2021/05/21 09:56:19;;;;;;;3.70;0.70;;;16.80;64.70;;;;;;5126008;27;27423;-50
2021/05/21 09:59:56;;;;;;;1.85;0.70;;;16.80;64.40;;;;;;5126518;27;27534;-47
2021/05/21 10:03:07;;;;;;;8.27;1.00;;;16.70;64.50;;;;;;5126254;27;27370;-47
2021/05/21 10:06:00;;;;;;;1.08;0.75;;;16.60;64.70;;;;;;5125634;27;27586;-47
2021/05/21 10:09:06;;;;;;;1.85;0.70;;;16.60;65.30;;;;;;5082521;27;27526;-47
2021/05/21 10:12:03;;;;;;;3.55;0.60;;;16.50;65.70;;;;;;5110637;27;27432;-48
2021/05/21 10:15:01;;;;;;;1.33;0.57;;;16.50;65.30;;;;;;5126555;27;27415;-50
2021/05/21 10:18:11;;;;;;;3.97;0.90;;;16.40;65.40;;;;;;5126097;27;27404;-48
2021/05/21 10:21:02;;;;;;;1.25;0.75;;;16.40;65.20;;;;;;5125827;27;27627;-49
2021/05/21 10:23:52;;;;;;;1.13;0.70;;;16.30;64.40;;;;;;5123150;27;27367;-49
2021/05/21 10:26:45;;;;;;;1.10;0.77;;;16.30;64.70;;;;;;5126317;27;27395;-48
2021/05/21 10:29:32;;;;;;;1.63;0.68;;;16.30;65.80;;;;;;5125729;27;27489;-50
2021/05/21 10:32:27;;;;;;;0.85;0.70;;;16.30;66.90;;;;;;5125845;27;27486;-48
2021/05/21 10:35:18;;;;;;;1.35;0.63;;;16.30;66.00;;;;;;5111901;27;27433;-48
2021/05/21 10:38:24;;;;;;;9.77;1.42;;;16.30;66.40;;;;;;5126161;27;27312;-46
2021/05/21 10:41:39;;;;;;;2.00;0.70;;;16.40;67.20;;;;;;5125563;27;27381;-48
2021/05/21 10:44:36;;;;;;;1.48;0.50;;;16.40;67.10;;;;;;5122481;27;27488;-47
2021/05/21 10:47:34;;;;;;;1.95;0.60;;;16.40;66.30;;;;;;5125856;27;27447;-47
2021/05/21 10:50:31;;;;;;;2.42;0.65;;;16.40;66.40;;;;;;5125327;27;27423;-47
2021/05/21 10:53:31;;;;;;;1.17;0.75;;;16.40;65.80;;;;;;5125647;27;27386;-47
2021/05/21 10:57:16;;;;;;;1.40;0.70;;;16.40;67.00;;;;;;5092724;27;27360;-47
2021/05/21 11:00:22;;;;;;;1.20;0.52;;;16.40;67.30;;;;;;5125589;27;27430;-49
2021/05/21 11:03:16;;;;;;;1.05;0.77;;;16.40;66.40;;;;;;5125463;27;27593;-48
2021/05/21 11:06:26;;;;;;;0.90;0.55;;;16.40;66.30;;;;;;5122306;27;27444;-49
2021/05/21 11:09:43;;;;;;;1.67;0.80;;;16.40;66.60;;;;;;5125708;27;27353;-52
2021/05/21 11:13:13;;;;;;;1.17;0.65;;;16.40;66.10;;;;;;5125149;27;27412;-52
2021/05/21 11:16:30;;;;;;;1.75;0.75;;;16.40;66.80;;;;;;5125338;27;27473;-52
2021/05/21 11:19:41;;;;;;;1.50;0.70;;;16.40;67.20;;;;;;5125159;27;27419;-50
2021/05/21 11:22:42;;;;;;;1.17;0.68;;;16.50;67.60;;;;;;5125478;27;27533;-49
2021/05/21 11:25:34;;;;;;;1.42;0.80;;;16.50;67.10;;;;;;5125576;27;27329;-52
2021/05/21 11:28:25;;;;;;;1.27;0.85;;;16.60;66.90;;;;;;5124526;27;27428;-50
2021/05/21 11:31:17;;;;;;;2.92;1.58;;;16.60;67.60;;;;;;5109824;27;27414;-52
2021/05/21 11:34:28;;;;;;;3.38;1.50;;;16.70;68.60;;;;;;5124965;27;27342;-53
2021/05/21 11:37:39;;;;;;;1.75;1.30;;;16.80;68.90;;;;;;5125440;27;27399;-53
2021/05/21 11:40:52;;;;;;;1.55;1.08;;;16.90;69.00;;;;;;5121693;27;27429;-52
2021/05/21 11:44:09;;;;;;;1.30;1.08;;;17.00;68.00;;;;;;5123845;27;27911;-49
2021/05/21 11:47:41;;;;;;;1.90;1.33;;;17.00;67.90;;;;;;5125196;27;27333;-49
2021/05/21 11:50:51;;;;;;;1.98;1.00;;;17.10;67.60;;;;;;5124735;27;27505;-49
2021/05/21 11:53:53;;;;;;;1.25;0.90;;;17.20;67.80;;;;;;5109151;27;27484;-52
2021/05/21 11:56:41;;;;;;;1.48;0.90;;;17.20;67.20;;;;;;5124725;27;27356;-50
2021/05/21 11:59:55;;;;;;;1.88;0.85;;;17.20;65.10;;;;;;5124656;27;27537;-50
2021/05/21 12:03:05;;;;;;;2.88;1.25;;;17.20;64.40;;;;;;5125154;27;27354;-51
2021/05/21 12:05:56;;;;;;;1.63;0.90;;;17.20;64.10;;;;;;5108854;27;27353;-48
2021/05/21 12:09:04;;;;;;;1.02;0.70;;;17.20;63.70;;;;;;5124551;27;27887;-49
2021/05/21 12:11:56;;;;;;;0.70;0.65;;;17.20;62.80;;;;;;5106631;27;27439;-51
2021/05/21 12:15:13;;;;;;;1.77;0.70;;;17.20;63.10;;;;;;5124892;27;27498;-48
2021/05/21 12:18:08;;;;;;;0.80;0.77;;;17.20;63.70;;;;;;5124554;27;27449;-48
2021/05/21 12:20:59;;;;;;;1.20;0.95;;;17.10;64.00;;;;;;5109376;27;27483;-49
2021/05/21 12:23:52;;;;;;;2.65;2.00;;;17.20;64.20;;;;;;5124442;27;27390;-48
2021/05/21 12:26:55;;;;;;;1.67;0.93;;;17.20;62.80;;;;;;5105801;27;27540;-51
2021/05/21 12:29:45;;;;;;;3.05;1.35;;;17.10;64.10;;;;;;5124384;27;27399;-48
2021/05/21 12:32:43;;;;;;;3.50;0.80;;;17.20;64.80;;;;;;5124199;27;27415;-49
2021/05/21 12:36:06;;;;;;;1.50;1.02;;;17.20;65.00;;;;;;5084134;27;27440;-51
2021/05/21 12:38:59;;;;;;;2.95;1.13;;;17.20;65.10;;;;;;5124002;27;27462;-53
2021/05/21 12:41:50;;;;;;;1.30;0.88;;;17.20;64.70;;;;;;5108312;27;27329;-49
2021/05/21 12:45:17;;;;;;;2.05;1.00;;;17.20;64.40;;;;;;5124099;27;27907;-50
2021/05/21 12:48:41;;;;;;;1.52;0.82;;;17.20;63.00;;;;;;5127660;27;27418;-50
2021/05/21 12:51:52;;;;;;;1.13;0.82;;;17.20;62.20;;;;;;5127726;27;27333;-48
2021/05/21 12:55:09;;;;;;;2.83;0.88;;;17.20;61.60;;;;;;5127885;27;27462;-49
2021/05/21 12:58:23;;;;;;;2.65;0.80;;;17.10;61.90;;;;;;5127718;27;27829;-47
2021/05/21 13:01:18;;;;;;;2.92;0.77;;;17.10;62.10;;;;;;5127184;27;27506;-50
2021/05/21 13:04:29;;;;;;;2.13;0.80;;;17.10;62.60;;;;;;5127560;27;27423;-53
2021/05/21 13:07:36;;;;;;;3.15;1.05;;;17.20;62.00;;;;;;5104083;28;27349;-57
2021/05/21 13:10:20;;;;;;;2.85;1.40;;;17.30;63.90;;;;;;5106414;28;27561;-48
2021/05/21 13:25:42;;;;;;;2.42;1.02;;;17.30;64.50;;;;;;5120770;27;27452;-61
2021/05/21 13:28:39;;;;;;;2.75;1.00;;;17.30;65.20;;;;;;5121808;27;27502;-59
2021/05/21 13:31:52;;;;;;;8.25;2.08;;;17.30;65.10;;;;;;5121145;27;27469;-59
2021/05/21 13:35:13;;;;;;;2.65;0.90;;;17.30;66.80;;;;;;5118700;27;27305;-59
2021/05/21 13:38:26;;;;;;;3.15;1.15;;;17.30;64.70;;;;;;5121176;27;27383;-59
2021/05/21 13:42:18;;;;;;;9.18;1.50;;;17.20;61.90;;;;;;5118042;27;27476;-59
2021/05/21 13:45:52;;;;;;;2.92;1.50;;;17.20;66.60;;;;;;5118613;27;27476;-62
2021/05/21 13:49:39;;;;;;;5.30;1.40;;;17.10;67.20;;;;;;5121458;27;27468;-59
2021/05/21 13:53:10;;;;;;;1.73;0.80;;;17.20;67.60;;;;;;5120611;27;28020;-60
2021/05/21 13:56:14;;;;;;;2.97;1.20;;;17.20;66.20;;;;;;5120366;27;27461;-60
2021/05/21 13:59:22;;;;;;;6.75;1.40;;;17.20;64.80;;;;;;5100799;28;27324;-60
2021/05/21 14:02:54;;;;;;;3.13;1.10;;;17.20;64.80;;;;;;5100229;28;27320;-58
2021/05/21 14:06:22;;;;;;;6.82;1.90;;;17.10;65.00;;;;;;5099300;28;27401;-60
2021/05/21 14:09:55;;;;;;;4.72;1.23;;;17.20;69.90;;;;;;5099628;28;27482;-58
2021/05/21 14:13:44;;;;;;;5.90;2.10;;;17.20;68.10;;;;;;5099945;28;27478;-61
2021/05/21 14:16:56;;;;;;;2.85;1.73;;;17.20;69.70;;;;;;5128580;27;27442;-56
2021/05/21 14:19:47;;;;;;;6.47;1.80;;;17.00;67.30;;;;;;5100711;28;27428;-58
2021/05/21 14:22:54;;;;;;;5.20;1.70;;;17.00;67.70;;;;;;5100374;28;27407;-60
2021/05/21 14:25:46;;;;;;;4.55;1.50;;;16.90;69.90;;;;;;5100027;28;27356;-60
2021/05/21 14:28:36;;;;;;;4.93;1.30;;;16.90;70.30;;;;;;5100745;28;26936;-60
2021/05/21 14:31:28;;;;;;;2.47;1.30;;;16.90;67.80;;;;;;5100659;28;27388;-60
2021/05/21 14:34:15;;;;;;;2.95;0.80;;;16.90;68.00;;;;;;5100343;28;27329;-60
2021/05/21 14:37:08;;;;;;;1.13;1.02;;;16.90;64.90;;;;;;5086599;28;27545;-61
2021/05/21 14:39:58;;;;;;;1.83;0.47;;;16.80;66.20;;;;;;5086843;28;27375;-60
2021/05/21 14:42:49;;;;;;;1.60;0.90;;;16.80;64.80;;;;;;5085973;28;27524;-61
2021/05/21 14:45:40;;;;;;;0.93;0.73;;;16.80;67.70;;;;;;5086792;28;27445;-61
2021/05/21 14:48:37;;;;;;;1.45;1.10;;;16.90;67.00;;;;;;5085981;28;27623;-61
2021/05/21 14:51:27;;;;;;;1.85;1.17;;;16.90;66.20;;;;;;5086671;28;26920;-61
2021/05/21 14:54:19;;;;;;;2.08;1.20;;;16.90;64.30;;;;;;5082289;28;27488;-61
2021/05/21 14:57:21;;;;;;;2.40;1.10;;;17.00;67.20;;;;;;5083284;28;27374;-61
2021/05/21 15:00:28;;;;;;;3.90;1.02;;;17.00;67.80;;;;;;5086248;28;27383;-61
2021/05/21 15:03:20;;;;;;;2.15;1.30;;;17.10;68.20;;;;;;5086080;28;27341;-61
2021/05/21 15:06:11;;;;;;;1.90;0.98;;;17.10;68.90;;;;;;5086395;28;27415;-61
2021/05/21 15:09:04;;;;;;;0.70;0.60;;;17.20;69.60;;;;;;5086331;28;27384;-61
2021/05/21 15:11:55;;;;;;;1.25;1.00;;;17.30;71.10;;;;;;5086462;28;27314;-61
2021/05/21 15:15:06;;;;;;;3.28;0.88;;;17.40;71.20;;;;;;5086053;28;27456;-62
2021/05/21 15:24:27;;;;;;;1.63;0.90;;;17.70;70.80;;;;;;5084890;28;27045;-61
2021/05/21 15:27:17;;;;;;;0.95;0.75;;;17.80;69.50;;;;;;5085927;28;27399;-61
2021/05/21 15:30:31;;;;;;;4.18;0.65;;;17.80;69.60;;;;;;5085955;28;27459;-61
2021/05/21 15:33:49;;;;;;;1.15;0.80;;;17.80;67.50;;;;;;5084735;28;27356;-61
2021/05/21 15:36:52;;;;;;;3.95;0.80;;;17.70;67.90;;;;;;5085604;28;27386;-61
2021/05/21 15:39:49;;;;;;;3.10;0.77;;;17.70;69.50;;;;;;5085527;28;27399;-61
2021/05/21 15:46:26;;;;;;;3.15;0.95;;;17.50;69.70;;;;;;5084316;28;27391;-61
2021/05/21 15:49:45;;;;;;;2.83;0.75;;;17.50;68.80;;;;;;5082214;28;27403;-61
2021/05/21 15:59:18;;;;;;;3.47;1.00;;;17.20;68.60;;;;;;5082348;28;27332;-61
2021/05/21 16:02:16;;;;;;;0.57;0.50;;;17.20;68.70;;;;;;5085174;28;27438;-61
2021/05/21 16:05:33;;;;;;;1.75;0.80;;;17.10;67.90;;;;;;5081799;28;27386;-62
2021/05/21 16:08:24;;;;;;;2.03;1.23;;;17.10;68.40;;;;;;5081121;28;27316;-61
2021/05/21 16:11:30;;;;;;;4.95;0.90;;;17.10;69.20;;;;;;5084711;28;27410;-61
2021/05/21 16:14:28;;;;;;;0.98;0.70;;;17.10;66.80;;;;;;5084813;28;27408;-62